createdAt,value
2018-03-02T00:00:57.874Z,-8.40
2018-03-02T00:04:01.929Z,-8.45
2018-03-02T00:07:06.774Z,-8.52
2018-03-02T00:10:10.066Z,-8.44
2018-03-02T00:13:14.126Z,-8.51
2018-03-02T00:16:18.254Z,-8.53
2018-03-02T00:19:22.295Z,-8.55
2018-03-02T00:22:25.582Z,-8.69
2018-03-02T00:25:28.902Z,-8.77
2018-03-02T00:28:32.920Z,-8.74
2018-03-02T00:31:37.654Z,-8.77
2018-03-02T00:34:40.923Z,-8.80
2018-03-02T00:37:44.206Z,-8.75
2018-03-02T00:40:48.250Z,-8.74
2018-03-02T00:43:51.529Z,-8.80
2018-03-02T00:46:54.805Z,-8.80
2018-03-02T00:49:58.879Z,-8.74
2018-03-02T00:53:02.161Z,-8.71
2018-03-02T00:56:05.430Z,-8.77
2018-03-02T00:59:08.723Z,-8.83
2018-03-02T01:02:12.026Z,-8.85
2018-03-02T01:05:15.426Z,-8.82
2018-03-02T01:08:18.836Z,-8.96
2018-03-02T01:11:22.298Z,-8.93
2018-03-02T01:14:25.650Z,-8.99
2018-03-02T01:17:29.742Z,-9.00
2018-03-02T01:20:33.050Z,-9.02
2018-03-02T01:23:36.337Z,-8.92
2018-03-02T01:26:39.603Z,-8.99
2018-03-02T01:29:42.900Z,-9.05
2018-03-02T01:32:46.244Z,-9.28
2018-03-02T01:35:49.534Z,-9.13
2018-03-02T01:38:53.095Z,-9.30
2018-03-02T01:41:56.459Z,-9.23
2018-03-02T01:44:59.733Z,-9.18
2018-03-02T01:48:03.005Z,-9.18
2018-03-02T01:51:07.045Z,-9.10
2018-03-02T01:54:11.181Z,-9.18
2018-03-02T01:57:14.453Z,-9.19
2018-03-02T02:00:18.466Z,-9.13
2018-03-02T02:03:21.750Z,-9.06
2018-03-02T02:06:25.803Z,-9.19
2018-03-02T02:09:29.089Z,-9.20
2018-03-02T02:12:32.356Z,-9.12
2018-03-02T02:15:36.453Z,-9.05
2018-03-02T02:18:39.730Z,-9.16
2018-03-02T02:21:43.769Z,-9.20
2018-03-02T02:24:47.060Z,-9.23
2018-03-02T02:27:50.329Z,-9.18
2018-03-02T02:30:53.611Z,-9.30
2018-03-02T02:33:56.903Z,-9.21
2018-03-02T02:37:00.169Z,-9.17
2018-03-02T02:40:04.543Z,-9.24
2018-03-02T02:43:07.813Z,-9.26
2018-03-02T02:46:13.104Z,-9.25
2018-03-02T02:49:16.396Z,-9.33
2018-03-02T02:52:19.677Z,-9.32
2018-03-02T02:55:22.989Z,-9.20
2018-03-02T02:58:26.261Z,-9.22
2018-03-02T03:01:29.568Z,-9.21
2018-03-02T03:04:32.853Z,-9.22
2018-03-02T03:07:36.124Z,-9.25
2018-03-02T03:10:40.225Z,-9.15
2018-03-02T03:13:43.513Z,-9.29
2018-03-02T03:16:46.783Z,-9.09
2018-03-02T03:19:50.071Z,-9.05
2018-03-02T03:22:53.341Z,-9.03
2018-03-02T03:25:56.618Z,-9.03
2018-03-02T03:29:00.665Z,-8.98
2018-03-02T03:32:03.941Z,-9.02
2018-03-02T03:35:07.219Z,-9.05
2018-03-02T03:38:11.262Z,-9.04
2018-03-02T03:41:14.562Z,-9.03
2018-03-02T03:44:17.943Z,-8.88
2018-03-02T03:47:21.978Z,-8.97
2018-03-02T03:50:25.266Z,-9.07
2018-03-02T03:53:29.304Z,-8.96
2018-03-02T03:56:32.679Z,-9.04
2018-03-02T03:59:35.976Z,-8.93
2018-03-02T04:02:40.033Z,-9.00
2018-03-02T04:05:44.105Z,-9.07
2018-03-02T04:08:47.442Z,-8.84
2018-03-02T04:11:50.717Z,-8.91
2018-03-02T04:14:53.996Z,-8.95
2018-03-02T04:17:58.042Z,-8.97
2018-03-02T04:21:01.325Z,-9.06
2018-03-02T04:24:04.592Z,-8.94
2018-03-02T04:27:08.645Z,-8.86
2018-03-02T04:30:11.941Z,-8.90
2018-03-02T04:33:15.214Z,-8.85
2018-03-02T04:36:18.500Z,-8.84
2018-03-02T04:39:22.557Z,-8.79
2018-03-02T04:42:25.820Z,-8.92
2018-03-02T04:45:30.095Z,-8.81
2018-03-02T04:48:33.480Z,-8.83
2018-03-02T04:51:36.762Z,-8.71
2018-03-02T04:54:40.065Z,-8.93
2018-03-02T04:57:43.361Z,-8.81
2018-03-02T05:00:47.342Z,-8.71
2018-03-02T05:03:51.378Z,-8.77
2018-03-02T05:06:54.784Z,-8.85
2018-03-02T05:09:58.074Z,-8.75
2018-03-02T05:13:01.355Z,-8.74
2018-03-02T05:16:06.453Z,-8.82
2018-03-02T05:19:10.478Z,-8.85
2018-03-02T05:22:13.769Z,-8.98
2018-03-02T05:25:17.162Z,-9.02
2018-03-02T05:28:25.849Z,-9.05
2018-03-02T05:31:29.775Z,-8.80
2018-03-02T05:34:33.191Z,-8.93
2018-03-02T05:37:37.509Z,-8.73
2018-03-02T05:40:40.909Z,-8.84
2018-03-02T05:43:44.210Z,-8.81
2018-03-02T05:46:47.488Z,-8.87
2018-03-02T05:49:51.577Z,-8.75
2018-03-02T05:52:54.849Z,-8.66
2018-03-02T05:55:58.136Z,-8.73
2018-03-02T05:59:01.453Z,-8.74
2018-03-02T06:02:04.750Z,-8.76
2018-03-02T06:05:08.104Z,-8.81
2018-03-02T06:08:12.199Z,-8.70
2018-03-02T06:11:15.513Z,-8.64
2018-03-02T06:14:19.552Z,-8.66
2018-03-02T06:17:22.845Z,-8.64
2018-03-02T06:20:26.135Z,-8.55
2018-03-02T06:23:30.184Z,-8.60
2018-03-02T06:26:33.516Z,-8.57
2018-03-02T06:29:36.800Z,-8.61
2018-03-02T06:32:40.120Z,-8.48
2018-03-02T06:35:43.421Z,-8.38
2018-03-02T06:38:49.448Z,-8.55
2018-03-02T06:41:52.722Z,-8.51
2018-03-02T06:44:56.014Z,-8.55
2018-03-02T06:47:59.292Z,-8.60
2018-03-02T06:51:03.342Z,-8.50
2018-03-02T06:54:06.633Z,-8.22
2018-03-02T06:57:09.928Z,-8.26
2018-03-02T07:00:13.257Z,-8.05
2018-03-02T07:03:16.529Z,-8.35
2018-03-02T07:06:19.805Z,-8.17
2018-03-02T07:09:23.091Z,-8.11
2018-03-02T07:12:27.926Z,-8.15
2018-03-02T07:15:32.554Z,-8.09
2018-03-02T07:18:36.583Z,-8.04
2018-03-02T07:21:39.863Z,-7.95
2018-03-02T07:24:43.905Z,-7.82
2018-03-02T07:27:47.275Z,-7.63
2018-03-02T07:30:51.321Z,-7.44
2018-03-02T07:33:54.596Z,-7.29
2018-03-02T07:36:57.876Z,-7.38
2018-03-02T07:40:01.956Z,-7.41
2018-03-02T07:43:05.262Z,-7.09
2018-03-02T07:46:08.567Z,-7.56
2018-03-02T07:49:11.847Z,-7.34
2018-03-02T07:52:15.117Z,-7.27
2018-03-02T07:55:19.662Z,-7.36
2018-03-02T07:58:22.961Z,-7.22
2018-03-02T08:01:26.934Z,-6.93
2018-03-02T08:04:30.977Z,-6.96
2018-03-02T08:07:34.262Z,-6.87
2018-03-02T08:10:37.644Z,-6.92
2018-03-02T08:13:41.672Z,-6.79
2018-03-02T08:16:44.958Z,-6.96
2018-03-02T08:19:48.987Z,-6.66
2018-03-02T08:22:52.277Z,-6.45
2018-03-02T08:25:55.577Z,-6.35
2018-03-02T08:28:58.858Z,-6.18
2018-03-02T08:32:03.081Z,-5.80
2018-03-02T08:35:07.199Z,-5.80
2018-03-02T08:38:12.233Z,-5.63
2018-03-02T08:41:16.286Z,-5.65
2018-03-02T08:44:19.560Z,-5.11
2018-03-02T08:47:22.870Z,-5.15
2018-03-02T08:50:26.246Z,-5.32
2018-03-02T08:53:30.306Z,-5.33
2018-03-02T08:56:33.601Z,-5.06
2018-03-02T08:59:37.688Z,-5.22
2018-03-02T09:02:41.717Z,-4.98
2018-03-02T09:05:44.998Z,-5.24
2018-03-02T09:08:48.288Z,-5.49
2018-03-02T09:11:52.837Z,-5.38
2018-03-02T09:14:56.661Z,-5.33
2018-03-02T09:17:59.948Z,-5.00
2018-03-02T09:21:03.276Z,-4.66
2018-03-02T09:24:06.563Z,-4.88
2018-03-02T09:27:10.638Z,-4.45
2018-03-02T09:30:13.929Z,-4.65
2018-03-02T09:33:18.004Z,-4.81
2018-03-02T09:36:21.357Z,-4.58
2018-03-02T09:39:24.637Z,-3.98
2018-03-02T09:42:28.741Z,-4.94
2018-03-02T09:45:32.784Z,-4.96
2018-03-02T09:48:36.082Z,-4.14
2018-03-02T09:51:39.470Z,-4.19
2018-03-02T09:54:43.508Z,-4.25
2018-03-02T09:57:46.785Z,-4.47
2018-03-02T10:00:50.100Z,-4.54
2018-03-02T10:03:53.785Z,-4.54
2018-03-02T10:06:57.821Z,-4.54
2018-03-02T10:10:01.101Z,-4.32
2018-03-02T10:13:04.596Z,-4.36
2018-03-02T10:16:08.637Z,-3.87
2018-03-02T10:19:11.915Z,-3.56
2018-03-02T10:22:15.182Z,-3.47
2018-03-02T10:25:18.493Z,-3.17
2018-03-02T10:28:22.534Z,-3.04
2018-03-02T10:31:25.853Z,-3.10
2018-03-02T10:34:29.120Z,-2.89
2018-03-02T10:37:32.682Z,-3.35
2018-03-02T10:40:36.596Z,-3.63
2018-03-02T10:43:39.900Z,-3.83
2018-03-02T10:46:43.192Z,-3.94
2018-03-02T10:49:46.468Z,-3.58
2018-03-02T10:52:49.733Z,-3.58
2018-03-02T10:55:53.029Z,-3.60
2018-03-02T10:58:56.297Z,-3.60
2018-03-02T11:02:05.797Z,-3.24
2018-03-02T11:05:11.047Z,-3.22
2018-03-02T11:08:14.327Z,-2.66
2018-03-02T11:11:17.620Z,-2.51
2018-03-02T11:14:20.938Z,-2.64
2018-03-02T11:17:24.234Z,-2.83
2018-03-02T11:20:27.656Z,-2.58
2018-03-02T11:23:30.924Z,-2.53
2018-03-02T11:26:34.201Z,-2.55
2018-03-02T11:29:37.477Z,-2.30
2018-03-02T11:32:42.061Z,-2.09
2018-03-02T11:35:45.332Z,-2.08
2018-03-02T11:38:48.757Z,-2.02
2018-03-02T11:41:52.045Z,-1.74
2018-03-02T11:44:55.313Z,-1.99
2018-03-02T11:47:58.641Z,-1.81
2018-03-02T11:51:01.909Z,-1.87
2018-03-02T11:54:05.177Z,-1.76
2018-03-02T11:57:09.221Z,-1.65
2018-03-02T12:00:12.493Z,-1.38
2018-03-02T12:03:16.543Z,-1.41
2018-03-02T12:06:19.980Z,-1.34
2018-03-02T12:09:23.268Z,-1.35
2018-03-02T12:12:26.569Z,-1.01
2018-03-02T12:15:29.838Z,-1.34
2018-03-02T12:18:33.123Z,-1.31
2018-03-02T12:21:36.418Z,-1.34
2018-03-02T12:24:39.807Z,-1.47
2018-03-02T12:27:43.930Z,-1.11
2018-03-02T12:30:47.210Z,-1.17
2018-03-02T12:33:51.259Z,-1.06
2018-03-02T12:36:54.629Z,-0.98
2018-03-02T12:39:59.917Z,-1.19
2018-03-02T12:43:03.225Z,-1.12
2018-03-02T12:46:06.589Z,-0.98
2018-03-02T12:49:09.919Z,-0.87
2018-03-02T12:52:13.989Z,-0.85
2018-03-02T12:55:18.028Z,-0.51
2018-03-02T12:58:21.437Z,-0.44
2018-03-02T13:01:24.720Z,-0.76
2018-03-02T13:04:28.110Z,-0.83
2018-03-02T13:07:31.418Z,-0.65
2018-03-02T13:10:34.716Z,-0.64
2018-03-02T13:13:38.198Z,-0.83
2018-03-02T13:16:42.320Z,-0.72
2018-03-02T13:19:46.399Z,-0.82
2018-03-02T13:22:49.685Z,-0.73
2018-03-02T13:25:52.966Z,-0.60
2018-03-02T13:28:56.251Z,-0.53
2018-03-02T13:31:59.523Z,-0.58
2018-03-02T13:35:11.643Z,-0.71
2018-03-02T13:38:14.929Z,-0.50
2018-03-02T13:41:35.864Z,0.00
2018-03-02T13:44:39.232Z,-0.04
2018-03-02T13:51:48.030Z,-0.43
2018-03-02T13:54:51.318Z,-0.17
2018-03-02T13:58:02.553Z,-0.27
2018-03-02T14:01:05.816Z,0.06
2018-03-02T14:04:26.882Z,-0.33
2018-03-02T14:07:30.155Z,-0.63
2018-03-02T14:10:34.209Z,-0.70
2018-03-02T14:13:37.509Z,-0.56
2018-03-02T14:16:40.859Z,-0.89
2018-03-02T14:19:44.929Z,-0.43
2018-03-02T14:22:48.302Z,-0.70
2018-03-02T14:25:52.352Z,-0.81
2018-03-02T14:28:55.625Z,-0.66
2018-03-02T14:31:58.910Z,-1.25
2018-03-02T14:35:04.217Z,-1.59
2018-03-02T14:38:07.481Z,-1.78
2018-03-02T14:41:10.811Z,-1.75
2018-03-02T14:44:14.075Z,-1.82
2018-03-02T14:47:17.384Z,-1.74
2018-03-02T14:50:20.670Z,-1.58
2018-03-02T14:53:24.075Z,-1.39
2018-03-02T14:56:27.561Z,-1.32
2018-03-02T14:59:30.912Z,-1.36
2018-03-02T15:02:35.789Z,-1.05
2018-03-02T15:05:39.828Z,-0.86
2018-03-02T15:08:43.138Z,-0.54
2018-03-02T15:11:46.396Z,-0.56
2018-03-02T15:14:49.729Z,-0.70
2018-03-02T15:17:53.046Z,-1.13
2018-03-02T15:20:56.302Z,-1.45
2018-03-02T15:23:59.584Z,-1.51
2018-03-02T15:27:02.877Z,-1.81
2018-03-02T15:30:06.171Z,-1.88
2018-03-02T15:33:10.191Z,-1.78
2018-03-02T15:36:13.509Z,-1.85
2018-03-02T15:39:16.830Z,-1.91
2018-03-02T15:42:20.100Z,-1.93
2018-03-02T15:45:23.814Z,-1.66
2018-03-02T15:48:27.760Z,-1.59
2018-03-02T15:51:31.850Z,-1.76
2018-03-02T15:54:35.132Z,-1.93
2018-03-02T15:57:38.433Z,-1.72
2018-03-02T16:00:43.445Z,-1.57
2018-03-02T16:03:47.494Z,-1.44
2018-03-02T16:06:50.865Z,-1.43
2018-03-02T16:09:54.953Z,-1.29
2018-03-02T16:12:58.257Z,-1.78
2018-03-02T16:16:02.310Z,-1.79
2018-03-02T16:19:05.626Z,-1.75
2018-03-02T16:22:08.908Z,-2.01
2018-03-02T16:25:12.210Z,-2.10
2018-03-02T16:28:15.512Z,-2.16
2018-03-02T16:31:18.821Z,-2.18
2018-03-02T16:34:22.121Z,-2.18
2018-03-02T16:37:25.405Z,-2.19
2018-03-02T16:40:28.690Z,-2.25
2018-03-02T16:43:32.085Z,-2.28
2018-03-02T16:46:35.459Z,-2.30
2018-03-02T16:49:39.364Z,-2.36
2018-03-02T16:52:42.631Z,-2.39
2018-03-02T16:55:45.920Z,-2.42
2018-03-02T16:58:49.208Z,-2.41
2018-03-02T17:01:52.493Z,-2.43
2018-03-02T17:04:55.761Z,-2.46
2018-03-02T17:07:59.804Z,-2.49
2018-03-02T17:11:03.168Z,-2.44
2018-03-02T17:14:06.427Z,-2.44
2018-03-02T17:17:11.132Z,-2.39
2018-03-02T17:20:14.407Z,-2.47
2018-03-02T17:23:19.126Z,-2.42
2018-03-02T17:26:22.702Z,-2.47
2018-03-02T17:29:26.928Z,-2.46
2018-03-02T17:32:30.197Z,-2.50
2018-03-02T17:35:33.498Z,-2.45
2018-03-02T17:38:36.770Z,-2.49
2018-03-02T17:41:41.322Z,-2.50
2018-03-02T17:44:44.605Z,-2.56
2018-03-02T17:47:47.882Z,-2.62
2018-03-02T17:50:52.772Z,-2.65
2018-03-02T17:53:57.109Z,-2.69
2018-03-02T17:57:00.394Z,-2.71
2018-03-02T18:00:04.561Z,-2.69
2018-03-02T18:03:07.850Z,-2.77
2018-03-02T18:06:13.853Z,-2.81
2018-03-02T18:09:17.155Z,-2.82
2018-03-02T18:12:21.198Z,-2.77
2018-03-02T18:15:24.501Z,-2.86
2018-03-02T18:18:27.798Z,-2.89
2018-03-02T18:21:31.088Z,-2.92
2018-03-02T18:24:34.438Z,-2.96
2018-03-02T18:27:37.667Z,-2.97
2018-03-02T18:30:42.371Z,-2.96
2018-03-02T18:33:45.744Z,-3.10
2018-03-02T18:36:49.790Z,-3.11
2018-03-02T18:39:53.086Z,-3.11
2018-03-02T18:42:56.365Z,-3.19
2018-03-02T18:45:59.636Z,-3.16
2018-03-02T18:49:03.718Z,-3.13
2018-03-02T18:52:07.003Z,-3.11
2018-03-02T18:55:10.330Z,-3.16
2018-03-02T18:58:13.681Z,-3.18
2018-03-02T19:01:16.988Z,-3.23
2018-03-02T19:04:20.333Z,-3.26
2018-03-02T19:07:25.168Z,-3.26
2018-03-02T19:10:29.422Z,-3.21
2018-03-02T19:13:32.707Z,-3.24
2018-03-02T19:16:36.750Z,-3.33
2018-03-02T19:19:40.063Z,-3.29
2018-03-02T19:22:44.112Z,-3.15
2018-03-02T19:25:47.389Z,-3.06
2018-03-02T19:28:50.666Z,-3.16
2018-03-02T19:31:53.929Z,-2.98
2018-03-02T19:34:57.982Z,-3.05
2018-03-02T19:38:01.293Z,-2.81
2018-03-02T19:41:04.636Z,-2.78
2018-03-02T19:44:08.008Z,-2.79
2018-03-02T19:47:11.553Z,-2.70
2018-03-02T19:50:15.588Z,-2.57
2018-03-02T19:53:18.877Z,-2.60
2018-03-02T19:56:22.166Z,-2.66
2018-03-02T19:59:25.945Z,-2.61
2018-03-02T20:02:29.215Z,-2.57
2018-03-02T20:05:32.522Z,-2.52
2018-03-02T20:08:35.804Z,-2.52
2018-03-02T20:11:39.864Z,-2.51
2018-03-02T20:14:43.921Z,-2.51
2018-03-02T20:17:47.217Z,-2.37
2018-03-02T20:20:50.566Z,-2.57
2018-03-02T20:23:53.899Z,-2.45
2018-03-02T20:26:57.187Z,-2.51
2018-03-02T20:30:01.237Z,-2.52
2018-03-02T20:33:04.667Z,-2.54
2018-03-02T20:36:07.971Z,-2.44
2018-03-02T20:39:11.253Z,-2.39
2018-03-02T20:42:14.745Z,-2.31
2018-03-02T20:45:18.017Z,-2.25
2018-03-02T20:48:21.336Z,-2.27
2018-03-02T20:51:24.722Z,-2.25
2018-03-02T20:54:28.008Z,-2.31
2018-03-02T20:57:31.366Z,-2.20
2018-03-02T21:00:34.638Z,-2.15
2018-03-02T21:03:38.696Z,-2.17
2018-03-02T21:06:42.729Z,-2.12
2018-03-02T21:09:46.005Z,-2.09
2018-03-02T21:12:50.062Z,-2.09
2018-03-02T21:15:54.697Z,-2.11
2018-03-02T21:18:58.064Z,-2.05
2018-03-02T21:22:01.409Z,-2.11
2018-03-02T21:25:04.760Z,-2.11
2018-03-02T21:28:08.178Z,-2.04
2018-03-02T21:31:11.585Z,-2.00
2018-03-02T21:34:18.976Z,-1.97
2018-03-02T21:37:18.317Z,-2.01
2018-03-02T21:40:21.641Z,-2.11
2018-03-02T21:43:24.961Z,-2.06
2018-03-02T21:46:28.303Z,-2.21
2018-03-02T21:49:31.867Z,-2.18
2018-03-02T21:52:35.143Z,-2.19
2018-03-02T21:55:39.228Z,-2.11
2018-03-02T21:58:42.585Z,-2.20
2018-03-02T22:01:45.869Z,-2.08
2018-03-02T22:04:49.954Z,-2.26
2018-03-02T22:07:53.288Z,-2.24
2018-03-02T22:10:56.738Z,-2.20
2018-03-02T22:14:00.019Z,-2.16
2018-03-02T22:17:03.925Z,-2.08
2018-03-02T22:20:07.306Z,-2.15
2018-03-02T22:23:10.593Z,-2.12
2018-03-02T22:26:14.044Z,-2.07
2018-03-02T22:29:17.328Z,-2.01
2018-03-02T22:32:20.609Z,-2.04
2018-03-02T22:35:24.609Z,-2.09
2018-03-02T22:38:27.978Z,-2.11
2018-03-02T22:41:32.147Z,-2.16
2018-03-02T22:44:35.427Z,-2.03
2018-03-02T22:47:38.746Z,-2.22
2018-03-02T22:50:42.033Z,-2.08
2018-03-02T22:53:45.313Z,-2.09
2018-03-02T22:56:48.709Z,-2.07
2018-03-02T22:59:51.977Z,-2.00
2018-03-02T23:03:10.364Z,-1.93
2018-03-02T23:06:13.724Z,-1.93
2018-03-02T23:09:17.020Z,-1.94
2018-03-02T23:12:20.995Z,-1.94
2018-03-02T23:15:24.302Z,-2.01
2018-03-02T23:18:27.718Z,-2.03
2018-03-02T23:21:30.992Z,-1.97
2018-03-02T23:24:34.259Z,-2.08
2018-03-02T23:27:38.367Z,-2.12
2018-03-02T23:30:41.597Z,-2.07
2018-03-02T23:33:44.974Z,-2.08
2018-03-02T23:36:49.008Z,-2.05
2018-03-02T23:39:52.293Z,-1.93
2018-03-02T23:42:56.442Z,-2.04
2018-03-02T23:45:59.743Z,-2.11
2018-03-02T23:49:03.012Z,-2.14
2018-03-02T23:52:06.298Z,-2.07
2018-03-02T23:55:10.342Z,-2.01
2018-03-02T23:58:13.637Z,-2.01
